sensor_id;sensor_type;location;lat;lon;timestamp;P1;durP1;ratioP1;P2;durP2;ratioP2
24585;SDS011;12743;52.262;6.172;2024-01-30T00:00:48;21.38;;;10.98;;
24585;SDS011;12743;52.262;6.172;2024-01-30T00:03:15;16.33;;;9.53;;
24585;SDS011;12743;52.262;6.172;2024-01-30T00:05:42;20.17;;;10.40;;
24585;SDS011;12743;52.262;6.172;2024-01-30T00:08:09;18.83;;;9.93;;
24585;SDS011;12743;52.262;6.172;2024-01-30T00:10:35;18.20;;;10.13;;
24585;SDS011;12743;52.262;6.172;2024-01-30T00:13:02;16.60;;;9.55;;
24585;SDS011;12743;52.262;6.172;2024-01-30T00:15:29;18.03;;;9.53;;
24585;SDS011;12743;52.262;6.172;2024-01-30T00:17:56;19.48;;;9.85;;
24585;SDS011;12743;52.262;6.172;2024-01-30T00:20:23;17.40;;;8.98;;
24585;SDS011;12743;52.262;6.172;2024-01-30T00:22:50;16.90;;;9.00;;
24585;SDS011;12743;52.262;6.172;2024-01-30T00:25:16;18.30;;;9.95;;
24585;SDS011;12743;52.262;6.172;2024-01-30T00:27:43;21.73;;;10.03;;
24585;SDS011;12743;52.262;6.172;2024-01-30T00:30:10;17.23;;;9.23;;
24585;SDS011;12743;52.262;6.172;2024-01-30T00:32:37;19.13;;;9.93;;
24585;SDS011;12743;52.262;6.172;2024-01-30T00:35:04;18.00;;;9.63;;
24585;SDS011;12743;52.262;6.172;2024-01-30T00:37:31;18.02;;;8.88;;
24585;SDS011;12743;52.262;6.172;2024-01-30T00:39:58;16.47;;;9.20;;
24585;SDS011;12743;52.262;6.172;2024-01-30T00:42:25;16.30;;;9.48;;
24585;SDS011;12743;52.262;6.172;2024-01-30T00:44:52;18.20;;;8.68;;
24585;SDS011;12743;52.262;6.172;2024-01-30T00:47:19;15.45;;;8.38;;
24585;SDS011;12743;52.262;6.172;2024-01-30T00:49:45;15.13;;;8.43;;
24585;SDS011;12743;52.262;6.172;2024-01-30T00:52:12;20.20;;;9.53;;
24585;SDS011;12743;52.262;6.172;2024-01-30T00:54:39;17.65;;;8.95;;
24585;SDS011;12743;52.262;6.172;2024-01-30T00:57:05;15.10;;;8.10;;
24585;SDS011;12743;52.262;6.172;2024-01-30T00:59:32;17.60;;;8.57;;
24585;SDS011;12743;52.262;6.172;2024-01-30T01:01:59;17.52;;;9.55;;
24585;SDS011;12743;52.262;6.172;2024-01-30T01:04:26;16.40;;;8.33;;
24585;SDS011;12743;52.262;6.172;2024-01-30T01:06:53;18.40;;;8.35;;
24585;SDS011;12743;52.262;6.172;2024-01-30T01:09:20;17.05;;;9.13;;
24585;SDS011;12743;52.262;6.172;2024-01-30T01:11:46;16.58;;;8.95;;
24585;SDS011;12743;52.262;6.172;2024-01-30T01:14:14;20.65;;;8.70;;
24585;SDS011;12743;52.262;6.172;2024-01-30T01:16:40;18.63;;;9.60;;
24585;SDS011;12743;52.262;6.172;2024-01-30T01:19:07;17.25;;;8.85;;
24585;SDS011;12743;52.262;6.172;2024-01-30T01:21:34;15.52;;;8.40;;
24585;SDS011;12743;52.262;6.172;2024-01-30T01:24:00;14.88;;;8.07;;
24585;SDS011;12743;52.262;6.172;2024-01-30T01:26:27;15.25;;;8.55;;
24585;SDS011;12743;52.262;6.172;2024-01-30T01:28:54;18.10;;;8.47;;
24585;SDS011;12743;52.262;6.172;2024-01-30T01:31:20;17.25;;;8.50;;
24585;SDS011;12743;52.262;6.172;2024-01-30T01:33:51;17.83;;;9.32;;
24585;SDS011;12743;52.262;6.172;2024-01-30T01:36:18;18.20;;;9.05;;
24585;SDS011;12743;52.262;6.172;2024-01-30T01:38:44;16.42;;;8.65;;
24585;SDS011;12743;52.262;6.172;2024-01-30T01:41:11;16.20;;;9.00;;
24585;SDS011;12743;52.262;6.172;2024-01-30T01:43:38;16.50;;;9.20;;
24585;SDS011;12743;52.262;6.172;2024-01-30T01:46:06;16.95;;;8.43;;
24585;SDS011;12743;52.262;6.172;2024-01-30T01:48:33;15.93;;;8.65;;
24585;SDS011;12743;52.262;6.172;2024-01-30T01:51:00;16.27;;;8.90;;
24585;SDS011;12743;52.262;6.172;2024-01-30T01:53:27;16.83;;;9.17;;
24585;SDS011;12743;52.262;6.172;2024-01-30T01:55:54;17.20;;;8.98;;
24585;SDS011;12743;52.262;6.172;2024-01-30T01:58:21;17.00;;;8.65;;
24585;SDS011;12743;52.262;6.172;2024-01-30T02:00:48;14.07;;;8.10;;
24585;SDS011;12743;52.262;6.172;2024-01-30T02:03:16;16.40;;;8.27;;
24585;SDS011;12743;52.262;6.172;2024-01-30T02:05:44;17.03;;;8.00;;
24585;SDS011;12743;52.262;6.172;2024-01-30T02:08:11;18.13;;;9.20;;
24585;SDS011;12743;52.262;6.172;2024-01-30T02:10:37;14.13;;;7.68;;
24585;SDS011;12743;52.262;6.172;2024-01-30T02:13:04;15.10;;;8.63;;
24585;SDS011;12743;52.262;6.172;2024-01-30T02:15:31;16.42;;;8.32;;
24585;SDS011;12743;52.262;6.172;2024-01-30T02:17:58;15.03;;;8.33;;
24585;SDS011;12743;52.262;6.172;2024-01-30T02:20:24;14.45;;;8.45;;
24585;SDS011;12743;52.262;6.172;2024-01-30T02:22:54;16.48;;;8.55;;
24585;SDS011;12743;52.262;6.172;2024-01-30T02:25:39;17.48;;;8.27;;
24585;SDS011;12743;52.262;6.172;2024-01-30T02:28:13;15.63;;;7.93;;
24585;SDS011;12743;52.262;6.172;2024-01-30T02:30:40;17.00;;;8.97;;
24585;SDS011;12743;52.262;6.172;2024-01-30T02:33:08;15.80;;;8.20;;
24585;SDS011;12743;52.262;6.172;2024-01-30T02:35:35;15.27;;;8.10;;
24585;SDS011;12743;52.262;6.172;2024-01-30T02:38:02;15.70;;;9.05;;
24585;SDS011;12743;52.262;6.172;2024-01-30T02:40:29;15.23;;;8.70;;
24585;SDS011;12743;52.262;6.172;2024-01-30T02:42:56;16.77;;;8.50;;
24585;SDS011;12743;52.262;6.172;2024-01-30T02:45:22;15.68;;;7.88;;
24585;SDS011;12743;52.262;6.172;2024-01-30T02:47:49;15.73;;;7.80;;
24585;SDS011;12743;52.262;6.172;2024-01-30T02:50:16;15.90;;;7.97;;
24585;SDS011;12743;52.262;6.172;2024-01-30T02:52:43;17.50;;;8.70;;
24585;SDS011;12743;52.262;6.172;2024-01-30T02:55:12;16.13;;;8.20;;
24585;SDS011;12743;52.262;6.172;2024-01-30T02:57:39;14.70;;;7.88;;
24585;SDS011;12743;52.262;6.172;2024-01-30T03:00:06;14.25;;;8.07;;
24585;SDS011;12743;52.262;6.172;2024-01-30T03:02:35;17.30;;;8.65;;
24585;SDS011;12743;52.262;6.172;2024-01-30T03:05:03;17.65;;;8.23;;
24585;SDS011;12743;52.262;6.172;2024-01-30T03:07:33;14.13;;;7.93;;
24585;SDS011;12743;52.262;6.172;2024-01-30T03:10:00;18.05;;;8.73;;
24585;SDS011;12743;52.262;6.172;2024-01-30T03:12:27;15.57;;;8.15;;
24585;SDS011;12743;52.262;6.172;2024-01-30T03:14:54;16.63;;;9.02;;
24585;SDS011;12743;52.262;6.172;2024-01-30T03:17:20;16.23;;;8.07;;
24585;SDS011;12743;52.262;6.172;2024-01-30T03:19:47;14.37;;;7.73;;
24585;SDS011;12743;52.262;6.172;2024-01-30T03:22:14;15.43;;;8.10;;
24585;SDS011;12743;52.262;6.172;2024-01-30T03:24:41;15.93;;;7.93;;
24585;SDS011;12743;52.262;6.172;2024-01-30T03:27:08;17.85;;;8.43;;
24585;SDS011;12743;52.262;6.172;2024-01-30T03:29:35;15.95;;;8.30;;
24585;SDS011;12743;52.262;6.172;2024-01-30T03:32:01;16.20;;;8.40;;
24585;SDS011;12743;52.262;6.172;2024-01-30T03:34:30;16.30;;;8.32;;
24585;SDS011;12743;52.262;6.172;2024-01-30T03:36:57;18.52;;;8.77;;
24585;SDS011;12743;52.262;6.172;2024-01-30T03:39:24;22.10;;;8.50;;
24585;SDS011;12743;52.262;6.172;2024-01-30T03:41:51;17.92;;;8.30;;
24585;SDS011;12743;52.262;6.172;2024-01-30T03:44:17;15.60;;;8.47;;
24585;SDS011;12743;52.262;6.172;2024-01-30T03:46:44;18.40;;;8.55;;
24585;SDS011;12743;52.262;6.172;2024-01-30T03:49:10;16.73;;;8.43;;
24585;SDS011;12743;52.262;6.172;2024-01-30T03:51:37;17.30;;;8.80;;
24585;SDS011;12743;52.262;6.172;2024-01-30T03:54:04;15.35;;;7.75;;
24585;SDS011;12743;52.262;6.172;2024-01-30T03:56:31;14.53;;;8.27;;
24585;SDS011;12743;52.262;6.172;2024-01-30T03:58:57;17.60;;;7.75;;
24585;SDS011;12743;52.262;6.172;2024-01-30T04:01:25;16.67;;;7.68;;
24585;SDS011;12743;52.262;6.172;2024-01-30T04:03:51;16.27;;;8.30;;
24585;SDS011;12743;52.262;6.172;2024-01-30T04:06:18;16.25;;;8.70;;
24585;SDS011;12743;52.262;6.172;2024-01-30T04:08:45;16.07;;;7.97;;
24585;SDS011;12743;52.262;6.172;2024-01-30T04:11:11;15.95;;;8.15;;
24585;SDS011;12743;52.262;6.172;2024-01-30T04:13:38;16.27;;;8.25;;
24585;SDS011;12743;52.262;6.172;2024-01-30T04:16:05;17.52;;;8.45;;
24585;SDS011;12743;52.262;6.172;2024-01-30T04:18:32;18.02;;;8.60;;
24585;SDS011;12743;52.262;6.172;2024-01-30T04:21:00;16.87;;;8.13;;
24585;SDS011;12743;52.262;6.172;2024-01-30T04:23:26;16.98;;;8.23;;
24585;SDS011;12743;52.262;6.172;2024-01-30T04:25:53;15.30;;;8.25;;
24585;SDS011;12743;52.262;6.172;2024-01-30T04:28:20;15.57;;;8.77;;
24585;SDS011;12743;52.262;6.172;2024-01-30T04:30:47;17.23;;;8.23;;
24585;SDS011;12743;52.262;6.172;2024-01-30T04:33:13;22.13;;;9.67;;
24585;SDS011;12743;52.262;6.172;2024-01-30T04:35:40;17.10;;;8.13;;
24585;SDS011;12743;52.262;6.172;2024-01-30T04:38:07;15.75;;;8.40;;
24585;SDS011;12743;52.262;6.172;2024-01-30T04:40:33;15.57;;;7.82;;
24585;SDS011;12743;52.262;6.172;2024-01-30T04:43:00;16.55;;;8.82;;
24585;SDS011;12743;52.262;6.172;2024-01-30T04:45:27;20.53;;;10.37;;
24585;SDS011;12743;52.262;6.172;2024-01-30T04:47:53;17.35;;;9.00;;
24585;SDS011;12743;52.262;6.172;2024-01-30T04:50:20;14.80;;;8.27;;
24585;SDS011;12743;52.262;6.172;2024-01-30T04:52:47;17.75;;;9.02;;
24585;SDS011;12743;52.262;6.172;2024-01-30T04:55:13;14.55;;;8.93;;
24585;SDS011;12743;52.262;6.172;2024-01-30T04:57:40;16.97;;;8.17;;
24585;SDS011;12743;52.262;6.172;2024-01-30T05:00:07;16.48;;;8.50;;
24585;SDS011;12743;52.262;6.172;2024-01-30T05:02:34;18.90;;;8.43;;
24585;SDS011;12743;52.262;6.172;2024-01-30T05:05:01;16.05;;;7.93;;
24585;SDS011;12743;52.262;6.172;2024-01-30T05:07:28;14.10;;;8.07;;
24585;SDS011;12743;52.262;6.172;2024-01-30T05:09:54;13.87;;;7.80;;
24585;SDS011;12743;52.262;6.172;2024-01-30T05:12:24;19.38;;;10.27;;
24585;SDS011;12743;52.262;6.172;2024-01-30T05:14:51;15.68;;;8.18;;
24585;SDS011;12743;52.262;6.172;2024-01-30T05:17:18;15.50;;;8.93;;
24585;SDS011;12743;52.262;6.172;2024-01-30T05:19:44;16.05;;;8.23;;
24585;SDS011;12743;52.262;6.172;2024-01-30T05:22:12;15.07;;;8.40;;
24585;SDS011;12743;52.262;6.172;2024-01-30T05:24:42;14.77;;;8.40;;
24585;SDS011;12743;52.262;6.172;2024-01-30T05:27:09;15.30;;;8.52;;
24585;SDS011;12743;52.262;6.172;2024-01-30T05:29:36;18.48;;;8.85;;
24585;SDS011;12743;52.262;6.172;2024-01-30T05:32:03;14.82;;;8.02;;
24585;SDS011;12743;52.262;6.172;2024-01-30T05:34:30;17.03;;;8.03;;
24585;SDS011;12743;52.262;6.172;2024-01-30T05:36:57;16.05;;;8.05;;
24585;SDS011;12743;52.262;6.172;2024-01-30T05:39:23;16.48;;;8.45;;
24585;SDS011;12743;52.262;6.172;2024-01-30T05:41:50;14.75;;;7.78;;
24585;SDS011;12743;52.262;6.172;2024-01-30T05:44:16;14.20;;;7.43;;
24585;SDS011;12743;52.262;6.172;2024-01-30T05:46:43;15.93;;;9.37;;
24585;SDS011;12743;52.262;6.172;2024-01-30T05:49:10;14.65;;;8.57;;
24585;SDS011;12743;52.262;6.172;2024-01-30T05:51:36;15.45;;;7.82;;
24585;SDS011;12743;52.262;6.172;2024-01-30T05:54:03;15.60;;;8.40;;
24585;SDS011;12743;52.262;6.172;2024-01-30T05:56:30;15.25;;;7.80;;
24585;SDS011;12743;52.262;6.172;2024-01-30T05:58:57;17.57;;;8.30;;
24585;SDS011;12743;52.262;6.172;2024-01-30T06:01:24;15.68;;;8.15;;
24585;SDS011;12743;52.262;6.172;2024-01-30T06:03:50;14.25;;;7.65;;
24585;SDS011;12743;52.262;6.172;2024-01-30T06:06:17;15.88;;;8.23;;
24585;SDS011;12743;52.262;6.172;2024-01-30T06:08:44;17.25;;;8.57;;
24585;SDS011;12743;52.262;6.172;2024-01-30T06:11:11;15.40;;;8.30;;
24585;SDS011;12743;52.262;6.172;2024-01-30T06:13:38;16.88;;;8.60;;
24585;SDS011;12743;52.262;6.172;2024-01-30T06:16:05;15.80;;;8.82;;
24585;SDS011;12743;52.262;6.172;2024-01-30T06:18:36;14.02;;;7.95;;
24585;SDS011;12743;52.262;6.172;2024-01-30T06:21:03;17.13;;;8.20;;
24585;SDS011;12743;52.262;6.172;2024-01-30T06:23:30;14.43;;;7.93;;
24585;SDS011;12743;52.262;6.172;2024-01-30T06:25:57;14.88;;;7.68;;
24585;SDS011;12743;52.262;6.172;2024-01-30T06:28:24;14.27;;;6.28;;
24585;SDS011;12743;52.262;6.172;2024-01-30T06:30:50;14.18;;;8.05;;
24585;SDS011;12743;52.262;6.172;2024-01-30T06:33:17;16.00;;;8.45;;
24585;SDS011;12743;52.262;6.172;2024-01-30T06:35:44;18.03;;;8.00;;
24585;SDS011;12743;52.262;6.172;2024-01-30T06:38:12;13.68;;;7.13;;
24585;SDS011;12743;52.262;6.172;2024-01-30T06:40:39;16.33;;;7.88;;
24585;SDS011;12743;52.262;6.172;2024-01-30T06:43:06;15.95;;;8.00;;
24585;SDS011;12743;52.262;6.172;2024-01-30T06:45:34;14.60;;;7.28;;
24585;SDS011;12743;52.262;6.172;2024-01-30T06:48:01;14.97;;;7.20;;
24585;SDS011;12743;52.262;6.172;2024-01-30T06:50:27;15.25;;;7.70;;
24585;SDS011;12743;52.262;6.172;2024-01-30T06:52:54;16.60;;;7.75;;
24585;SDS011;12743;52.262;6.172;2024-01-30T06:55:21;20.98;;;9.15;;
24585;SDS011;12743;52.262;6.172;2024-01-30T06:57:48;14.80;;;8.15;;
24585;SDS011;12743;52.262;6.172;2024-01-30T07:00:16;13.50;;;7.57;;
24585;SDS011;12743;52.262;6.172;2024-01-30T07:02:45;15.80;;;8.40;;
24585;SDS011;12743;52.262;6.172;2024-01-30T07:05:12;14.32;;;7.68;;
24585;SDS011;12743;52.262;6.172;2024-01-30T07:07:39;15.32;;;7.15;;
24585;SDS011;12743;52.262;6.172;2024-01-30T07:10:06;14.55;;;7.65;;
24585;SDS011;12743;52.262;6.172;2024-01-30T07:12:34;13.17;;;7.53;;
24585;SDS011;12743;52.262;6.172;2024-01-30T07:15:00;14.18;;;7.22;;
24585;SDS011;12743;52.262;6.172;2024-01-30T07:17:29;16.15;;;6.85;;
24585;SDS011;12743;52.262;6.172;2024-01-30T07:19:55;15.02;;;8.40;;
24585;SDS011;12743;52.262;6.172;2024-01-30T07:22:22;15.10;;;7.90;;
24585;SDS011;12743;52.262;6.172;2024-01-30T07:24:49;14.50;;;7.23;;
24585;SDS011;12743;52.262;6.172;2024-01-30T07:27:17;13.07;;;7.05;;
24585;SDS011;12743;52.262;6.172;2024-01-30T07:29:44;14.45;;;7.43;;
24585;SDS011;12743;52.262;6.172;2024-01-30T07:32:11;14.25;;;7.53;;
24585;SDS011;12743;52.262;6.172;2024-01-30T07:34:37;13.75;;;7.05;;
24585;SDS011;12743;52.262;6.172;2024-01-30T07:37:15;13.47;;;7.67;;
24585;SDS011;12743;52.262;6.172;2024-01-30T07:39:42;13.05;;;6.93;;
24585;SDS011;12743;52.262;6.172;2024-01-30T07:42:09;14.85;;;7.68;;
24585;SDS011;12743;52.262;6.172;2024-01-30T07:44:36;13.75;;;6.88;;
24585;SDS011;12743;52.262;6.172;2024-01-30T07:47:02;15.55;;;7.28;;
24585;SDS011;12743;52.262;6.172;2024-01-30T07:49:29;15.83;;;6.97;;
24585;SDS011;12743;52.262;6.172;2024-01-30T07:51:56;16.52;;;7.22;;
24585;SDS011;12743;52.262;6.172;2024-01-30T07:54:22;13.93;;;7.47;;
24585;SDS011;12743;52.262;6.172;2024-01-30T07:56:49;13.90;;;7.30;;
24585;SDS011;12743;52.262;6.172;2024-01-30T07:59:16;15.85;;;7.15;;
24585;SDS011;12743;52.262;6.172;2024-01-30T08:01:43;13.17;;;6.57;;
24585;SDS011;12743;52.262;6.172;2024-01-30T08:04:09;16.38;;;7.20;;
24585;SDS011;12743;52.262;6.172;2024-01-30T08:06:36;13.43;;;6.75;;
24585;SDS011;12743;52.262;6.172;2024-01-30T08:09:06;15.50;;;8.50;;
24585;SDS011;12743;52.262;6.172;2024-01-30T08:11:33;13.00;;;7.00;;
24585;SDS011;12743;52.262;6.172;2024-01-30T08:14:00;16.43;;;7.50;;
24585;SDS011;12743;52.262;6.172;2024-01-30T08:16:26;17.75;;;7.97;;
24585;SDS011;12743;52.262;6.172;2024-01-30T08:18:53;15.45;;;6.68;;
24585;SDS011;12743;52.262;6.172;2024-01-30T08:21:23;15.02;;;7.40;;
24585;SDS011;12743;52.262;6.172;2024-01-30T08:23:50;14.80;;;7.53;;
24585;SDS011;12743;52.262;6.172;2024-01-30T08:26:16;13.67;;;6.90;;
24585;SDS011;12743;52.262;6.172;2024-01-30T08:28:43;13.35;;;7.78;;
24585;SDS011;12743;52.262;6.172;2024-01-30T08:31:10;13.00;;;7.05;;
24585;SDS011;12743;52.262;6.172;2024-01-30T08:33:38;13.73;;;7.18;;
24585;SDS011;12743;52.262;6.172;2024-01-30T08:36:06;14.32;;;7.03;;
24585;SDS011;12743;52.262;6.172;2024-01-30T08:38:33;12.53;;;7.10;;
24585;SDS011;12743;52.262;6.172;2024-01-30T08:41:00;16.00;;;7.88;;
24585;SDS011;12743;52.262;6.172;2024-01-30T08:43:27;14.38;;;6.88;;
24585;SDS011;12743;52.262;6.172;2024-01-30T08:45:54;13.85;;;6.85;;
24585;SDS011;12743;52.262;6.172;2024-01-30T08:48:20;13.18;;;6.78;;
24585;SDS011;12743;52.262;6.172;2024-01-30T08:50:49;13.80;;;6.60;;
24585;SDS011;12743;52.262;6.172;2024-01-30T08:53:15;12.30;;;6.43;;
24585;SDS011;12743;52.262;6.172;2024-01-30T08:55:42;13.18;;;6.50;;
24585;SDS011;12743;52.262;6.172;2024-01-30T08:58:09;11.98;;;6.47;;
24585;SDS011;12743;52.262;6.172;2024-01-30T09:00:35;13.60;;;6.65;;
24585;SDS011;12743;52.262;6.172;2024-01-30T09:03:05;13.17;;;6.50;;
24585;SDS011;12743;52.262;6.172;2024-01-30T09:05:32;14.52;;;6.07;;
24585;SDS011;12743;52.262;6.172;2024-01-30T09:07:59;17.13;;;7.03;;
24585;SDS011;12743;52.262;6.172;2024-01-30T09:10:25;12.18;;;6.50;;
24585;SDS011;12743;52.262;6.172;2024-01-30T09:12:53;12.57;;;5.93;;
24585;SDS011;12743;52.262;6.172;2024-01-30T09:15:20;13.93;;;6.83;;
24585;SDS011;12743;52.262;6.172;2024-01-30T09:17:50;13.73;;;6.40;;
24585;SDS011;12743;52.262;6.172;2024-01-30T09:20:17;13.80;;;6.82;;
24585;SDS011;12743;52.262;6.172;2024-01-30T09:22:43;12.73;;;6.72;;
24585;SDS011;12743;52.262;6.172;2024-01-30T09:25:10;15.93;;;7.47;;
24585;SDS011;12743;52.262;6.172;2024-01-30T09:27:37;12.60;;;6.57;;
24585;SDS011;12743;52.262;6.172;2024-01-30T09:30:04;14.65;;;6.80;;
24585;SDS011;12743;52.262;6.172;2024-01-30T09:32:31;13.32;;;6.65;;
24585;SDS011;12743;52.262;6.172;2024-01-30T09:34:58;13.35;;;6.30;;
24585;SDS011;12743;52.262;6.172;2024-01-30T09:37:24;14.13;;;6.30;;
24585;SDS011;12743;52.262;6.172;2024-01-30T09:39:53;13.37;;;6.50;;
24585;SDS011;12743;52.262;6.172;2024-01-30T09:44:52;14.10;;;6.65;;
24585;SDS011;12743;52.262;6.172;2024-01-30T09:47:19;11.57;;;6.45;;
24585;SDS011;12743;52.262;6.172;2024-01-30T09:49:46;14.65;;;7.25;;
24585;SDS011;12743;52.262;6.172;2024-01-30T09:52:14;16.87;;;8.33;;
24585;SDS011;12743;52.262;6.172;2024-01-30T09:54:41;16.05;;;7.43;;
24585;SDS011;12743;52.262;6.172;2024-01-30T09:57:08;14.63;;;6.90;;
24585;SDS011;12743;52.262;6.172;2024-01-30T09:59:35;15.65;;;7.13;;
24585;SDS011;12743;52.262;6.172;2024-01-30T10:02:02;16.67;;;7.65;;
24585;SDS011;12743;52.262;6.172;2024-01-30T10:04:30;19.03;;;7.80;;
24585;SDS011;12743;52.262;6.172;2024-01-30T10:06:57;14.93;;;7.07;;
24585;SDS011;12743;52.262;6.172;2024-01-30T10:09:28;18.27;;;7.43;;
24585;SDS011;12743;52.262;6.172;2024-01-30T10:11:58;14.23;;;7.13;;
24585;SDS011;12743;52.262;6.172;2024-01-30T10:14:25;13.40;;;6.70;;
24585;SDS011;12743;52.262;6.172;2024-01-30T10:16:52;14.23;;;6.30;;
24585;SDS011;12743;52.262;6.172;2024-01-30T10:19:19;16.23;;;7.10;;
24585;SDS011;12743;52.262;6.172;2024-01-30T10:21:46;12.98;;;6.13;;
24585;SDS011;12743;52.262;6.172;2024-01-30T10:24:13;11.40;;;5.95;;
24585;SDS011;12743;52.262;6.172;2024-01-30T10:26:40;13.48;;;6.18;;
24585;SDS011;12743;52.262;6.172;2024-01-30T10:29:07;14.07;;;6.60;;
24585;SDS011;12743;52.262;6.172;2024-01-30T10:31:33;15.35;;;6.50;;
24585;SDS011;12743;52.262;6.172;2024-01-30T10:34:00;13.32;;;6.75;;
24585;SDS011;12743;52.262;6.172;2024-01-30T10:36:42;14.13;;;6.22;;
24585;SDS011;12743;52.262;6.172;2024-01-30T10:39:13;13.25;;;6.50;;
24585;SDS011;12743;52.262;6.172;2024-01-30T10:41:44;14.80;;;6.47;;
24585;SDS011;12743;52.262;6.172;2024-01-30T10:44:12;13.40;;;6.18;;
24585;SDS011;12743;52.262;6.172;2024-01-30T10:46:41;16.23;;;7.32;;
24585;SDS011;12743;52.262;6.172;2024-01-30T10:49:09;15.73;;;7.30;;
24585;SDS011;12743;52.262;6.172;2024-01-30T10:51:36;15.18;;;6.80;;
24585;SDS011;12743;52.262;6.172;2024-01-30T10:54:03;16.33;;;7.20;;
24585;SDS011;12743;52.262;6.172;2024-01-30T10:56:32;14.80;;;7.03;;
24585;SDS011;12743;52.262;6.172;2024-01-30T10:58:59;11.48;;;6.05;;
24585;SDS011;12743;52.262;6.172;2024-01-30T11:01:26;13.23;;;6.10;;
24585;SDS011;12743;52.262;6.172;2024-01-30T11:03:53;15.00;;;5.93;;
24585;SDS011;12743;52.262;6.172;2024-01-30T11:06:24;16.03;;;5.83;;
24585;SDS011;12743;52.262;6.172;2024-01-30T11:09:01;12.15;;;6.35;;
24585;SDS011;12743;52.262;6.172;2024-01-30T11:11:51;14.57;;;6.50;;
24585;SDS011;12743;52.262;6.172;2024-01-30T11:14:24;13.73;;;5.90;;
24585;SDS011;12743;52.262;6.172;2024-01-30T11:16:56;11.98;;;5.68;;
24585;SDS011;12743;52.262;6.172;2024-01-30T11:19:30;14.63;;;6.13;;
24585;SDS011;12743;52.262;6.172;2024-01-30T11:21:57;14.50;;;5.97;;
24585;SDS011;12743;52.262;6.172;2024-01-30T11:24:24;13.30;;;5.80;;
24585;SDS011;12743;52.262;6.172;2024-01-30T11:27:01;13.23;;;5.97;;
24585;SDS011;12743;52.262;6.172;2024-01-30T11:29:29;13.43;;;6.13;;
24585;SDS011;12743;52.262;6.172;2024-01-30T11:31:59;12.50;;;5.27;;
24585;SDS011;12743;52.262;6.172;2024-01-30T11:34:26;12.32;;;5.60;;
24585;SDS011;12743;52.262;6.172;2024-01-30T11:36:55;12.52;;;6.05;;
24585;SDS011;12743;52.262;6.172;2024-01-30T11:39:26;10.15;;;4.88;;
24585;SDS011;12743;52.262;6.172;2024-01-30T11:41:54;12.95;;;5.32;;
24585;SDS011;12743;52.262;6.172;2024-01-30T11:44:21;11.33;;;5.17;;
24585;SDS011;12743;52.262;6.172;2024-01-30T11:46:51;13.85;;;5.13;;
24585;SDS011;12743;52.262;6.172;2024-01-30T11:49:18;12.20;;;5.07;;
24585;SDS011;12743;52.262;6.172;2024-01-30T11:51:45;12.38;;;5.15;;
24585;SDS011;12743;52.262;6.172;2024-01-30T11:54:12;11.48;;;4.53;;
24585;SDS011;12743;52.262;6.172;2024-01-30T11:56:39;11.67;;;4.03;;
24585;SDS011;12743;52.262;6.172;2024-01-30T11:59:05;12.70;;;4.38;;
24585;SDS011;12743;52.262;6.172;2024-01-30T12:01:32;12.82;;;4.43;;
24585;SDS011;12743;52.262;6.172;2024-01-30T12:03:59;9.10;;;3.85;;
24585;SDS011;12743;52.262;6.172;2024-01-30T12:06:26;12.23;;;3.72;;
24585;SDS011;12743;52.262;6.172;2024-01-30T12:09:00;13.53;;;4.20;;
24585;SDS011;12743;52.262;6.172;2024-01-30T12:11:30;11.80;;;3.78;;
24585;SDS011;12743;52.262;6.172;2024-01-30T12:13:57;9.85;;;4.40;;
24585;SDS011;12743;52.262;6.172;2024-01-30T12:16:23;10.52;;;3.50;;
24585;SDS011;12743;52.262;6.172;2024-01-30T12:18:58;9.73;;;3.78;;
24585;SDS011;12743;52.262;6.172;2024-01-30T12:21:26;10.63;;;3.40;;
24585;SDS011;12743;52.262;6.172;2024-01-30T12:23:53;9.65;;;4.03;;
24585;SDS011;12743;52.262;6.172;2024-01-30T12:26:19;6.22;;;2.72;;
24585;SDS011;12743;52.262;6.172;2024-01-30T12:28:49;6.82;;;3.35;;
24585;SDS011;12743;52.262;6.172;2024-01-30T12:31:16;11.73;;;3.53;;
24585;SDS011;12743;52.262;6.172;2024-01-30T12:33:43;6.90;;;2.97;;
24585;SDS011;12743;52.262;6.172;2024-01-30T12:36:11;6.28;;;2.58;;
24585;SDS011;12743;52.262;6.172;2024-01-30T12:38:37;6.85;;;2.90;;
24585;SDS011;12743;52.262;6.172;2024-01-30T12:41:06;9.57;;;3.03;;
24585;SDS011;12743;52.262;6.172;2024-01-30T12:43:33;7.55;;;2.85;;
24585;SDS011;12743;52.262;6.172;2024-01-30T12:46:05;5.60;;;2.47;;
24585;SDS011;12743;52.262;6.172;2024-01-30T12:48:32;10.93;;;2.65;;
24585;SDS011;12743;52.262;6.172;2024-01-30T12:50:59;9.77;;;3.83;;
24585;SDS011;12743;52.262;6.172;2024-01-30T12:53:26;8.15;;;2.60;;
24585;SDS011;12743;52.262;6.172;2024-01-30T12:55:52;8.43;;;2.97;;
24585;SDS011;12743;52.262;6.172;2024-01-30T12:58:20;6.37;;;2.13;;
24585;SDS011;12743;52.262;6.172;2024-01-30T13:00:47;8.73;;;2.20;;
24585;SDS011;12743;52.262;6.172;2024-01-30T13:03:14;5.57;;;1.88;;
24585;SDS011;12743;52.262;6.172;2024-01-30T13:05:41;8.63;;;2.17;;
24585;SDS011;12743;52.262;6.172;2024-01-30T13:08:08;6.97;;;2.05;;
24585;SDS011;12743;52.262;6.172;2024-01-30T13:10:35;7.97;;;1.80;;
24585;SDS011;12743;52.262;6.172;2024-01-30T13:13:02;4.60;;;1.20;;
24585;SDS011;12743;52.262;6.172;2024-01-30T13:15:29;4.43;;;1.20;;
24585;SDS011;12743;52.262;6.172;2024-01-30T13:17:55;6.57;;;1.80;;
24585;SDS011;12743;52.262;6.172;2024-01-30T13:20:22;10.43;;;1.30;;
24585;SDS011;12743;52.262;6.172;2024-01-30T13:22:49;4.93;;;1.20;;
24585;SDS011;12743;52.262;6.172;2024-01-30T13:25:16;6.22;;;1.00;;
24585;SDS011;12743;52.262;6.172;2024-01-30T13:27:43;8.77;;;1.10;;
24585;SDS011;12743;52.262;6.172;2024-01-30T13:30:10;6.25;;;1.00;;
24585;SDS011;12743;52.262;6.172;2024-01-30T13:32:37;8.27;;;1.27;;
24585;SDS011;12743;52.262;6.172;2024-01-30T13:35:04;6.37;;;1.60;;
24585;SDS011;12743;52.262;6.172;2024-01-30T13:37:31;7.50;;;1.88;;
24585;SDS011;12743;52.262;6.172;2024-01-30T13:39:58;8.23;;;2.15;;
24585;SDS011;12743;52.262;6.172;2024-01-30T13:42:24;6.32;;;2.28;;
24585;SDS011;12743;52.262;6.172;2024-01-30T13:44:51;9.15;;;2.08;;
24585;SDS011;12743;52.262;6.172;2024-01-30T13:47:18;6.80;;;2.30;;
24585;SDS011;12743;52.262;6.172;2024-01-30T13:49:47;7.50;;;2.60;;
24585;SDS011;12743;52.262;6.172;2024-01-30T13:52:14;8.52;;;2.50;;
24585;SDS011;12743;52.262;6.172;2024-01-30T13:54:42;8.38;;;2.47;;
24585;SDS011;12743;52.262;6.172;2024-01-30T13:57:09;13.18;;;3.13;;
24585;SDS011;12743;52.262;6.172;2024-01-30T13:59:35;7.63;;;2.70;;
24585;SDS011;12743;52.262;6.172;2024-01-30T14:02:03;7.93;;;3.33;;
24585;SDS011;12743;52.262;6.172;2024-01-30T14:04:30;8.15;;;2.70;;
24585;SDS011;12743;52.262;6.172;2024-01-30T14:06:57;9.27;;;3.10;;
24585;SDS011;12743;52.262;6.172;2024-01-30T14:09:30;7.32;;;2.97;;
24585;SDS011;12743;52.262;6.172;2024-01-30T14:11:58;10.03;;;3.03;;
24585;SDS011;12743;52.262;6.172;2024-01-30T14:14:25;8.00;;;2.60;;
24585;SDS011;12743;52.262;6.172;2024-01-30T14:16:52;8.20;;;2.97;;
24585;SDS011;12743;52.262;6.172;2024-01-30T14:19:18;6.88;;;2.28;;
24585;SDS011;12743;52.262;6.172;2024-01-30T14:21:45;8.35;;;2.60;;
24585;SDS011;12743;52.262;6.172;2024-01-30T14:24:12;7.43;;;2.57;;
24585;SDS011;12743;52.262;6.172;2024-01-30T14:26:38;8.10;;;1.98;;
24585;SDS011;12743;52.262;6.172;2024-01-30T14:29:05;7.00;;;2.38;;
24585;SDS011;12743;52.262;6.172;2024-01-30T14:31:32;3.92;;;1.50;;
24585;SDS011;12743;52.262;6.172;2024-01-30T14:33:58;6.45;;;2.10;;
24585;SDS011;12743;52.262;6.172;2024-01-30T14:36:26;6.23;;;2.23;;
24585;SDS011;12743;52.262;6.172;2024-01-30T14:38:54;7.22;;;2.30;;